Time;durP1;ratioP1;P1;durP2;ratioP2;P2;SDS_P1;SDS_P2;PMS_P1;PMS_P2;Temp;Humidity;BMP_temperature;BMP_pressure;BME280_temperature;BME280_humidity;BME280_pressure;Samples;Min_cycle;Max_cycle;Signal;HPM_P1;HPM_P2
2023/05/12 07:16:18;;;;;;;10.93;6.32;;;;;;;12.42;85.67;96342.03;2095404;27;20566;-56
2023/05/12 07:18:27;;;;;;;11.35;7.47;;;;;;;12.49;84.67;96335.50;2100943;27;21124;-57
2023/05/12 07:20:37;;;;;;;12.70;6.38;;;;;;;12.55;85.88;96350.03;2098293;27;20550;-57
2023/05/12 07:22:53;;;;;;;7.63;5.25;;;;;;;12.74;85.51;96341.94;2101553;27;21060;-57
2023/05/12 07:28:12;;;;;;;10.27;6.07;;;;;;;12.68;84.84;96303.84;2074792;28;20345;-58
2023/05/12 07:30:28;;;;;;;8.10;5.30;;;;;;;12.94;83.87;96332.91;2083060;28;20561;-58
2023/05/12 07:32:56;;;;;;;8.65;4.30;;;;;;;13.05;83.53;96340.13;2083596;28;20971;-58
2023/05/12 07:33:58;;;;;;;6.53;4.40;;;;;;;13.00;83.33;96336.94;2080128;28;20192;-59
2023/05/12 07:36:09;;;;;;;6.55;4.55;;;;;;;13.25;82.24;96340.72;2098496;27;20550;-58
2023/05/12 07:37:11;;;;;;;7.43;4.45;;;;;;;13.32;81.58;96347.28;2085731;28;20215;-59
2023/05/12 07:39:24;;;;;;;7.88;4.55;;;;;;;13.13;81.62;96343.16;2107270;27;20563;-58
2023/05/12 07:41:46;;;;;;;7.22;4.85;;;;;;;12.99;82.38;96338.72;2093313;27;20564;-58
2023/05/12 07:44:04;;;;;;;7.45;4.50;;;;;;;12.80;84.79;96344.22;2080710;28;20569;-58
2023/05/12 07:45:07;;;;;;;5.22;3.78;;;;;;;13.07;84.62;96331.25;2084181;28;20200;-58
2023/05/12 07:47:23;;;;;;;7.90;4.30;;;;;;;13.21;84.13;96345.31;2101616;27;20560;-58
2023/05/12 07:48:25;;;;;;;4.90;3.45;;;;;;;13.45;82.33;96339.56;2098720;28;20196;-58
2023/05/12 07:49:26;;;;;;;6.50;3.88;;;;;;;13.42;81.68;96342.34;2097901;28;20234;-58
2023/05/12 07:50:28;;;;;;;5.15;2.83;;;;;;;13.43;82.33;96338.81;2096706;28;20381;-58
2023/05/12 07:51:29;;;;;;;5.15;3.60;;;;;;;13.58;81.51;96343.09;2087741;28;21102;-58
2023/05/12 07:52:31;;;;;;;7.28;3.65;;;;;;;13.72;80.34;96337.00;2078337;28;20240;-59
2023/05/12 07:53:33;;;;;;;4.20;2.80;;;;;;;13.73;79.50;96335.25;2079944;28;20193;-58
2023/05/12 07:54:34;;;;;;;6.60;3.30;;;;;;;13.53;80.07;96329.44;2079732;28;22644;-58
2023/05/12 07:55:36;;;;;;;6.65;4.63;;;;;;;13.57;79.88;96336.16;2085899;28;20258;-58
2023/05/12 07:56:37;;;;;;;6.28;4.18;;;;;;;13.61;79.92;96339.44;2090574;28;20227;-59
2023/05/12 07:57:38;;;;;;;6.88;4.10;;;;;;;13.66;80.41;96338.25;2090466;28;20256;-58
2023/05/12 07:58:40;;;;;;;10.43;3.85;;;;;;;13.70;80.47;96341.53;2086599;28;20192;-58
2023/05/12 07:59:41;;;;;;;9.23;4.47;;;;;;;13.78;79.38;96334.00;2086981;28;21092;-58
2023/05/12 08:00:43;;;;;;;6.93;4.07;;;;;;;13.95;78.45;96334.72;2091081;28;20328;-58
2023/05/12 08:01:45;;;;;;;6.93;5.10;;;;;;;13.82;80.39;96334.66;2089124;28;20626;-58
2023/05/12 08:02:46;;;;;;;9.88;5.45;;;;;;;13.96;81.23;96328.53;2090703;28;20287;-58
2023/05/12 08:03:50;;;;;;;9.60;5.30;;;;;;;14.10;81.32;96332.91;2091475;28;20200;-59
2023/05/12 08:04:51;;;;;;;9.85;5.75;;;;;;;14.02;81.33;96336.03;2090312;28;20200;-59
2023/05/12 08:05:53;;;;;;;6.95;5.10;;;;;;;14.09;80.00;96336.47;2091825;28;20199;-58
2023/05/12 08:06:54;;;;;;;6.93;4.75;;;;;;;14.01;79.93;96337.78;2088742;28;20230;-59
2023/05/12 08:07:56;;;;;;;6.63;4.65;;;;;;;13.85;80.54;96327.44;2090177;28;20242;-59
2023/05/12 08:08:57;;;;;;;7.30;5.15;;;;;;;13.88;81.04;96335.09;2090040;28;20239;-58
2023/05/12 08:09:59;;;;;;;7.18;4.57;;;;;;;13.68;81.85;96333.72;2092743;28;20647;-58
2023/05/12 08:11:01;;;;;;;6.78;4.78;;;;;;;13.82;81.88;96332.03;2089773;28;20330;-58
2023/05/12 08:12:03;;;;;;;8.85;5.10;;;;;;;13.48;81.98;96334.94;2088563;28;20223;-58
2023/05/12 08:13:05;;;;;;;7.00;5.20;;;;;;;13.50;84.05;96342.75;2089089;28;20235;-58
2023/05/12 08:14:06;;;;;;;7.05;5.20;;;;;;;13.53;83.50;96339.91;2089529;28;20561;-58
2023/05/12 08:15:08;;;;;;;5.85;4.57;;;;;;;13.74;82.77;96332.50;2090071;28;20284;-58
2023/05/12 08:16:09;;;;;;;6.57;3.40;;;;;;;13.89;81.94;96338.59;2089526;28;20258;-58
2023/05/12 08:17:11;;;;;;;5.13;3.83;;;;;;;14.03;80.54;96332.47;2090041;28;20228;-58
2023/05/12 08:18:13;;;;;;;5.72;3.72;;;;;;;13.99;79.54;96330.94;2089608;28;20276;-58
2023/05/12 08:19:14;;;;;;;7.65;3.80;;;;;;;13.81;80.37;96338.22;2090022;28;20196;-58
2023/05/12 08:20:15;;;;;;;6.50;4.50;;;;;;;13.91;79.78;96338.47;2087766;28;20297;-58
2023/05/12 08:21:17;;;;;;;5.05;3.67;;;;;;;14.01;79.41;96336.97;2088235;28;20201;-59
2023/05/12 08:22:18;;;;;;;6.05;3.53;;;;;;;14.00;79.32;96335.28;2086476;28;20644;-58
2023/05/12 08:23:20;;;;;;;5.43;3.42;;;;;;;14.06;79.46;96334.88;2091123;28;20241;-59
2023/05/12 08:24:21;;;;;;;4.95;3.63;;;;;;;14.19;78.57;96338.44;2089686;28;20203;-59
2023/05/12 08:25:23;;;;;;;4.57;3.28;;;;;;;14.31;78.73;96328.91;2089948;28;20199;-58
2023/05/12 08:26:24;;;;;;;5.07;3.83;;;;;;;14.04;78.79;96339.38;2089533;28;20227;-58
2023/05/12 08:27:26;;;;;;;6.55;3.97;;;;;;;13.80;79.92;96336.53;2090290;28;20620;-59
2023/05/12 08:28:27;;;;;;;6.50;3.50;;;;;;;13.98;79.89;96342.38;2089887;28;21007;-58
2023/05/12 08:29:28;;;;;;;4.88;3.58;;;;;;;14.14;79.16;96337.03;2089831;28;20195;-58
2023/05/12 08:30:30;;;;;;;4.85;3.53;;;;;;;14.08;78.49;96326.91;2086284;28;20200;-59
2023/05/12 08:31:31;;;;;;;4.90;3.08;;;;;;;14.11;78.46;96335.44;2087333;28;20332;-58
2023/05/12 08:32:33;;;;;;;4.68;3.22;;;;;;;14.08;77.81;96337.41;2092070;28;20222;-58
2023/05/12 08:33:35;;;;;;;10.27;2.95;;;;;;;13.81;78.69;96325.09;2089378;28;20744;-58
2023/05/12 08:34:36;;;;;;;4.15;2.35;;;;;;;14.09;78.82;96333.84;2089175;28;20211;-59
2023/05/12 08:35:38;;;;;;;5.57;2.95;;;;;;;14.10;78.38;96331.13;2086248;28;20197;-59
2023/05/12 08:36:40;;;;;;;6.32;3.40;;;;;;;14.04;78.46;96339.38;2085947;28;20252;-58
2023/05/12 08:37:41;;;;;;;4.40;3.30;;;;;;;14.01;77.93;96336.97;2089999;28;20222;-58
2023/05/12 08:38:43;;;;;;;7.72;3.92;;;;;;;13.91;77.01;96318.31;2088656;28;20228;-58
2023/05/12 08:39:44;;;;;;;4.00;3.03;;;;;;;14.02;78.12;96338.66;2088707;28;20191;-59
2023/05/12 08:40:56;;;;;;;4.95;3.42;;;;;;;13.85;78.08;96344.94;2090407;28;20228;-58
2023/05/12 08:42:33;;;;;;;5.07;3.42;;;;;;;13.98;77.47;96345.00;2089392;28;20223;-58
2023/05/12 08:43:43;;;;;;;11.48;3.55;;;;;;;14.03;77.89;96343.81;2090830;28;20196;-59
2023/05/12 08:44:46;;;;;;;8.20;3.75;;;;;;;14.02;78.16;96347.34;2089572;28;20596;-58
2023/05/12 08:45:48;;;;;;;4.40;3.22;;;;;;;14.06;78.13;96348.00;2088459;28;20197;-58
2023/05/12 08:46:51;;;;;;;4.22;3.22;;;;;;;14.01;77.67;96347.47;2088231;28;20623;-58
2023/05/12 08:47:53;;;;;;;4.95;3.30;;;;;;;14.11;78.00;96348.56;2104820;28;20206;-59
2023/05/12 08:48:57;;;;;;;5.13;3.85;;;;;;;13.77;77.87;96342.81;2104560;28;20203;-59
2023/05/12 08:50:02;;;;;;;5.95;3.75;;;;;;;13.68;78.72;96346.00;2090051;28;20193;-59
2023/05/12 08:51:08;;;;;;;4.32;3.13;;;;;;;13.98;78.00;96350.25;2089176;28;20192;-58
2023/05/12 08:52:13;;;;;;;4.70;3.78;;;;;;;14.09;76.55;96346.97;2088773;28;20251;-57
2023/05/12 08:53:17;;;;;;;3.90;3.08;;;;;;;14.14;77.46;96353.59;2088210;28;20192;-57
2023/05/12 08:54:21;;;;;;;5.25;3.50;;;;;;;14.09;77.65;96350.44;2089714;28;20203;-57
2023/05/12 08:55:23;;;;;;;8.30;3.75;;;;;;;14.03;77.42;96341.19;2088773;28;20200;-57
2023/05/12 08:56:32;;;;;;;10.52;3.53;;;;;;;14.17;76.97;96350.78;2087355;28;20216;-56
2023/05/12 08:57:36;;;;;;;5.38;3.30;;;;;;;14.23;76.87;96359.22;2088813;28;20234;-57
2023/05/12 08:58:41;;;;;;;5.07;3.45;;;;;;;14.32;76.59;96351.59;2084031;28;20227;-56
2023/05/12 08:59:43;;;;;;;6.43;3.38;;;;;;;14.44;75.93;96354.38;2084221;28;20197;-57
2023/05/12 09:00:45;;;;;;;4.85;3.58;;;;;;;14.59;75.28;96353.38;2082344;28;20193;-57
2023/05/12 09:01:48;;;;;;;5.05;3.53;;;;;;;14.71;75.63;96348.28;2084861;28;20224;-57
2023/05/12 09:02:51;;;;;;;4.97;3.25;;;;;;;14.88;75.65;96352.41;2081885;28;20671;-57
2023/05/12 09:03:55;;;;;;;4.30;3.03;;;;;;;14.95;74.79;96344.00;2082290;28;20201;-57
2023/05/12 09:04:56;;;;;;;5.32;3.42;;;;;;;14.92;75.00;96352.13;2084299;28;20296;-57
2023/05/12 09:05:59;;;;;;;4.68;3.78;;;;;;;14.95;74.77;96346.66;2085157;28;20481;-56
2023/05/12 09:07:02;;;;;;;3.83;3.30;;;;;;;14.82;74.67;96349.25;2081799;28;20231;-57
2023/05/12 09:08:04;;;;;;;6.90;3.85;;;;;;;14.99;74.92;96348.13;2081366;28;20243;-57
2023/05/12 09:09:06;;;;;;;6.00;3.20;;;;;;;15.46;73.71;96345.00;2082723;28;20287;-57
2023/05/12 09:10:18;;;;;;;3.72;3.20;;;;;;;15.73;72.47;96351.91;2083123;28;20290;-57
2023/05/12 09:11:35;;;;;;;3.22;2.35;;;;;;;15.96;70.86;96345.91;2083851;28;20224;-57
2023/05/12 09:12:41;;;;;;;4.30;3.20;;;;;;;16.07;70.47;96349.56;2080698;28;20201;-57
2023/05/12 09:14:03;;;;;;;7.03;3.20;;;;;;;16.20;69.30;96349.50;2085140;28;20235;-57
2023/05/12 09:15:07;;;;;;;3.22;2.13;;;;;;;16.40;68.65;96351.53;2086674;28;20192;-57
2023/05/12 09:16:11;;;;;;;3.95;2.75;;;;;;;16.66;68.73;96348.81;2099552;28;20270;-57
2023/05/12 09:17:13;;;;;;;5.05;2.83;;;;;;;16.64;69.45;96348.91;2099430;28;20192;-57
2023/05/12 09:18:14;;;;;;;4.15;2.80;;;;;;;16.61;69.96;96346.50;2080596;28;20871;-56
2023/05/12 09:19:20;;;;;;;5.35;2.85;;;;;;;16.56;70.09;96347.81;2083861;28;20201;-57
2023/05/12 09:20:25;;;;;;;3.63;2.50;;;;;;;16.60;69.48;96351.91;2084902;28;20243;-57
2023/05/12 09:21:33;;;;;;;4.82;2.33;;;;;;;16.75;68.73;96356.03;2082444;28;20244;-57
2023/05/12 09:22:35;;;;;;;3.85;2.47;;;;;;;17.01;67.95;96341.88;2082170;28;20213;-56
2023/05/12 09:23:36;;;;;;;3.60;2.92;;;;;;;17.12;68.59;96336.63;2085109;28;20734;-57
2023/05/12 09:24:39;;;;;;;4.72;3.22;;;;;;;17.06;68.65;96339.72;2080493;28;20197;-57
2023/05/12 09:25:41;;;;;;;4.75;3.47;;;;;;;17.03;69.10;96350.53;2080659;28;20250;-57
2023/05/12 09:26:47;;;;;;;5.50;3.15;;;;;;;17.02;68.68;96344.41;2083435;28;20224;-57
2023/05/12 09:27:55;;;;;;;3.85;3.15;;;;;;;16.73;68.60;96350.00;2080307;28;20566;-57
2023/05/12 09:29:07;;;;;;;6.53;3.42;;;;;;;16.38;70.01;96348.19;2082670;28;20220;-57
2023/05/12 09:30:11;;;;;;;4.25;2.85;;;;;;;16.38;69.41;96340.28;2083911;28;20228;-57
2023/05/12 09:31:17;;;;;;;4.90;3.25;;;;;;;16.38;69.02;96353.47;2079571;28;20193;-57
2023/05/12 09:32:30;;;;;;;4.15;2.58;;;;;;;15.77;70.41;96343.69;2082219;28;20247;-57
2023/05/12 09:33:34;;;;;;;5.20;3.17;;;;;;;15.74;69.70;96341.28;2083544;28;20196;-57
2023/05/12 09:34:39;;;;;;;4.40;3.50;;;;;;;15.66;71.26;96341.81;2084162;28;20200;-57
2023/05/12 09:35:45;;;;;;;4.00;2.88;;;;;;;15.72;70.73;96345.81;2083290;28;20232;-57
2023/05/12 09:36:57;;;;;;;3.55;1.98;;;;;;;15.93;69.15;96347.91;2083030;28;20594;-57
2023/05/12 09:38:07;;;;;;;2.95;2.35;;;;;;;15.69;69.21;96335.50;2082300;28;20201;-57
2023/05/12 09:39:09;;;;;;;4.03;2.20;;;;;;;15.65;69.83;96347.19;2083284;28;20201;-57
2023/05/12 09:40:12;;;;;;;4.82;2.38;;;;;;;15.59;70.57;96347.63;2084284;28;20669;-57
2023/05/12 09:41:21;;;;;;;5.72;2.20;;;;;;;15.66;70.29;96348.88;2082300;28;20228;-57
2023/05/12 09:42:27;;;;;;;3.05;2.05;;;;;;;15.67;69.06;96345.31;2082566;28;20208;-57
2023/05/12 09:43:29;;;;;;;2.17;1.50;;;;;;;15.22;69.99;96353.63;2082932;28;20201;-57
2023/05/12 09:44:31;;;;;;;3.25;1.73;;;;;;;15.43;70.07;96350.47;2082757;28;20235;-58
2023/05/12 09:45:34;;;;;;;2.88;1.73;;;;;;;15.55;69.60;96348.78;2083702;28;20197;-57
2023/05/12 09:46:38;;;;;;;3.13;1.52;;;;;;;15.66;68.90;96341.81;2082819;28;20224;-57
2023/05/12 09:47:40;;;;;;;2.90;1.98;;;;;;;15.43;69.90;96339.97;2084715;28;20648;-57
2023/05/12 09:48:41;;;;;;;2.78;1.67;;;;;;;15.31;70.26;96347.75;2082677;28;20193;-57
2023/05/12 09:49:45;;;;;;;2.35;1.50;;;;;;;15.32;70.94;96348.56;2084332;28;20224;-57
2023/05/12 09:50:51;;;;;;;2.75;2.15;;;;;;;15.34;70.77;96344.88;2080133;28;20197;-56
2023/05/12 09:51:57;;;;;;;3.45;2.03;;;;;;;15.25;71.00;96348.16;2080650;28;20223;-57
2023/05/12 09:52:58;;;;;;;2.78;2.20;;;;;;;15.11;71.44;96346.47;2083684;28;20226;-57
2023/05/12 09:54:00;;;;;;;5.28;2.10;;;;;;;15.23;71.39;96346.59;2083686;28;20197;-57
2023/05/12 09:55:09;;;;;;;8.90;2.33;;;;;;;14.39;74.01;96343.34;2084917;28;20632;-56
2023/05/12 09:56:11;;;;;;;2.63;1.95;;;;;;;14.54;73.88;96347.59;2084231;28;20275;-57
2023/05/12 09:57:15;;;;;;;2.75;2.15;;;;;;;14.72;72.94;96340.31;2083378;28;20243;-56
2023/05/12 10:14:21;;;;;;;7.07;2.65;;;;;;;14.48;76.04;96345.34;2083634;28;20555;-56
2023/05/12 10:16:49;;;;;;;4.57;3.00;;;;;;;14.62;75.70;96350.53;2082697;28;20561;-57
2023/05/12 10:19:13;;;;;;;4.20;3.45;;;;;;;14.84;75.42;96351.78;2091151;28;20569;-56
2023/05/12 10:20:16;;;;;;;5.95;3.60;;;;;;;14.76;74.85;96351.47;2088294;28;20203;-57
2023/05/12 10:22:48;;;;;;;7.00;4.03;;;;;;;14.82;75.25;96357.13;2085847;28;20560;-57
2023/05/12 10:23:50;;;;;;;9.63;3.83;;;;;;;14.86;75.26;96350.72;2084540;28;20196;-57
2023/05/12 10:26:26;;;;;;;5.82;3.67;;;;;;;14.59;75.93;96350.75;2087877;27;20581;-57
2023/05/12 10:27:30;;;;;;;5.10;3.95;;;;;;;14.45;75.52;96354.28;2079868;28;20229;-57
2023/05/12 10:30:14;;;;;;;7.35;4.07;;;;;;;14.54;76.61;96347.59;2083646;28;20574;-56
2023/05/12 10:32:49;;;;;;;5.75;4.00;;;;;;;14.23;76.32;96357.44;2101920;27;20545;-56
2023/05/12 10:35:33;;;;;;;4.63;3.53;;;;;;;14.38;76.28;96355.59;2101004;27;20576;-57
2023/05/12 10:38:18;;;;;;;5.20;3.25;;;;;;;14.44;75.75;96354.38;2097829;27;20559;-57
2023/05/12 10:41:02;;;;;;;5.95;3.42;;;;;;;14.60;75.83;96355.06;2089754;28;20922;-57
2023/05/12 10:43:48;;;;;;;5.82;3.10;;;;;;;14.62;75.83;96337.41;2100700;27;20557;-56
2023/05/12 10:44:55;;;;;;;4.55;2.95;;;;;;;14.48;75.54;96350.59;2094968;28;20192;-56
2023/05/12 10:46:06;;;;;;;7.22;3.33;;;;;;;14.65;75.35;96354.78;2094797;28;20302;-57
2023/05/12 10:47:13;;;;;;;4.30;3.03;;;;;;;14.84;74.66;96354.41;2093612;28;20227;-57
2023/05/12 10:48:15;;;;;;;4.43;3.10;;;;;;;14.95;73.89;96346.66;2098864;28;20210;-57
2023/05/12 10:49:16;;;;;;;6.03;2.90;;;;;;;15.01;73.53;96348.03;2100087;28;20210;-56
2023/05/12 10:50:27;;;;;;;5.82;2.85;;;;;;;15.10;73.66;96343.94;2096015;28;20207;-57
2023/05/12 10:51:34;;;;;;;4.18;2.60;;;;;;;15.17;72.65;96347.81;2093324;28;20224;-57
2023/05/12 10:52:35;;;;;;;6.10;2.60;;;;;;;15.26;72.60;96351.63;2093038;28;20721;-57
2023/05/12 10:53:38;;;;;;;12.52;3.42;;;;;;;15.37;71.26;96345.63;2090360;28;20688;-57
2023/05/12 10:54:59;;;;;;;3.33;2.58;;;;;;;15.45;71.24;96338.91;2090551;28;20195;-57
2023/05/12 10:56:05;;;;;;;3.30;2.47;;;;;;;15.34;71.74;96355.41;2094496;28;20215;-57
2023/05/12 10:57:12;;;;;;;4.30;2.90;;;;;;;15.39;70.80;96347.22;2082921;28;20216;-57
2023/05/12 10:58:18;;;;;;;5.43;3.30;;;;;;;15.71;69.92;96346.75;2080298;28;20201;-57
2023/05/12 10:59:22;;;;;;;3.92;2.80;;;;;;;15.45;70.43;96315.22;2080337;28;20288;-57
2023/05/12 11:00:27;;;;;;;5.35;2.80;;;;;;;15.48;71.82;96346.56;2079846;28;20315;-57
2023/05/12 11:01:29;;;;;;;4.28;2.70;;;;;;;15.59;72.02;96348.47;2086741;28;20218;-56
2023/05/12 11:02:33;;;;;;;10.15;2.88;;;;;;;15.88;71.05;96350.84;2096372;28;20228;-57
2023/05/12 11:03:38;;;;;;;7.30;2.92;;;;;;;15.56;70.55;96355.72;2095074;28;20208;-57
2023/05/12 11:04:50;;;;;;;4.60;2.85;;;;;;;15.65;69.87;96345.38;2092818;28;20461;-57
2023/05/12 11:05:59;;;;;;;3.25;2.20;;;;;;;15.98;68.88;96351.88;2094842;28;20198;-56
2023/05/12 11:07:03;;;;;;;3.05;1.90;;;;;;;16.18;68.67;96351.44;2092906;28;20219;-57
2023/05/12 11:08:06;;;;;;;3.85;1.83;;;;;;;16.08;66.71;96351.25;2101342;28;20202;-57
2023/05/12 11:09:11;;;;;;;2.85;1.60;;;;;;;16.24;65.81;96340.44;2095158;28;20192;-57
2023/05/12 11:10:14;;;;;;;2.53;1.92;;;;;;;16.06;65.78;96354.00;2096732;28;20225;-57
2023/05/12 11:11:17;;;;;;;3.80;2.83;;;;;;;15.80;67.09;96346.09;2094102;28;20206;-57
2023/05/12 11:12:20;;;;;;;5.80;2.10;;;;;;;15.94;67.27;96345.16;2094260;28;20241;-57
2023/05/12 11:13:23;;;;;;;4.10;2.40;;;;;;;15.92;67.21;96343.59;2092528;28;20804;-57
2023/05/12 11:14:25;;;;;;;3.63;2.55;;;;;;;15.97;67.93;96338.84;2094593;28;20200;-56
2023/05/12 11:15:27;;;;;;;5.30;2.60;;;;;;;16.28;66.82;96337.47;2093345;28;20691;-57
2023/05/12 11:16:28;;;;;;;5.72;2.30;;;;;;;16.23;67.45;96351.94;2094526;28;20220;-57
2023/05/12 11:17:30;;;;;;;3.13;2.00;;;;;;;15.96;68.24;96345.91;2094183;28;20196;-57
2023/05/12 11:18:32;;;;;;;3.83;2.10;;;;;;;15.40;69.83;96348.03;2093821;28;20206;-57
2023/05/12 11:19:34;;;;;;;3.30;2.50;;;;;;;15.88;69.77;96350.03;2095575;28;20200;-57
2023/05/12 11:20:36;;;;;;;4.20;1.80;;;;;;;15.97;69.14;96352.88;2094543;28;20201;-57
2023/05/12 11:21:38;;;;;;;4.18;2.20;;;;;;;15.97;69.12;96350.22;2092771;28;20821;-57
2023/05/12 11:22:40;;;;;;;4.47;2.40;;;;;;;15.94;69.39;96353.06;2092994;28;20210;-57
2023/05/12 11:23:41;;;;;;;5.63;2.10;;;;;;;15.88;69.57;96347.41;2092970;28;20212;-57
2023/05/12 11:24:43;;;;;;;3.80;2.30;;;;;;;15.98;69.50;96348.44;2099509;28;20195;-57
2023/05/12 11:25:45;;;;;;;5.13;2.38;;;;;;;16.11;69.26;96351.88;2096502;28;20196;-57
2023/05/12 11:26:56;;;;;;;3.45;2.00;;;;;;;15.97;69.27;96346.72;2095783;28;20792;-57
2023/05/12 11:27:57;;;;;;;3.50;2.40;;;;;;;15.91;70.00;96344.53;2097825;28;20200;-57
2023/05/12 11:29:03;;;;;;;3.65;2.40;;;;;;;15.94;70.53;96358.31;2095510;28;20208;-57
2023/05/12 11:30:05;;;;;;;3.90;2.70;;;;;;;15.89;71.03;96357.81;2092960;28;20824;-60
2023/05/12 11:31:07;;;;;;;6.25;3.40;;;;;;;15.84;70.86;96357.28;2089967;28;20199;-60
2023/05/12 11:32:11;;;;;;;5.30;3.17;;;;;;;15.77;71.55;96356.00;2096859;28;20538;-58
2023/05/12 11:33:13;;;;;;;27.52;7.45;;;;;;;15.80;71.92;96358.44;2100210;28;20258;-59
2023/05/12 11:34:19;;;;;;;4.07;2.55;;;;;;;15.76;71.10;96346.44;2098286;28;20442;-59
2023/05/12 11:35:20;;;;;;;8.13;2.95;;;;;;;15.50;71.71;96356.97;2089958;28;20197;-57
2023/05/12 11:36:22;;;;;;;10.48;4.55;;;;;;;15.45;72.09;96354.69;2091111;28;20228;-58
2023/05/12 11:37:24;;;;;;;71.32;49.92;;;;;;;15.33;72.14;96351.09;2091513;28;20212;-58
2023/05/12 11:38:27;;;;;;;106.13;65.68;;;;;;;15.32;72.02;96353.84;2092484;28;20204;-58
2023/05/12 11:39:32;;;;;;;57.92;38.00;;;;;;;15.33;72.17;96360.78;2095486;28;20202;-58
2023/05/12 11:40:39;;;;;;;57.78;33.78;;;;;;;15.31;72.22;96357.41;2092098;28;20228;-57
2023/05/12 11:43:19;;;;;;;5.80;3.30;;;;;;;14.99;71.52;96363.88;2086859;28;20919;-58
2023/05/12 11:44:22;;;;;;;4.85;2.90;;;;;;;15.10;71.00;96357.09;2082248;28;20228;-57
2023/05/12 11:45:27;;;;;;;3.88;2.80;;;;;;;15.23;70.27;96359.72;2083076;28;20234;-59
2023/05/12 11:46:29;;;;;;;3.55;2.40;;;;;;;15.29;70.04;96354.88;2077756;28;20229;-58
2023/05/12 11:47:31;;;;;;;5.25;2.70;;;;;;;15.44;69.52;96357.41;2074170;28;20198;-57
2023/05/12 11:48:33;;;;;;;6.50;3.35;;;;;;;15.40;69.29;96359.44;2074061;28;20205;-58
2023/05/12 11:49:45;;;;;;;3.70;2.55;;;;;;;15.60;69.56;96358.03;2070298;28;20561;-58
2023/05/12 11:50:50;;;;;;;4.43;2.67;;;;;;;15.61;69.03;96351.81;2071090;28;20202;-58
2023/05/12 11:51:53;;;;;;;2.85;2.10;;;;;;;15.71;69.34;96349.41;2073018;28;20225;-57
2023/05/12 11:52:56;;;;;;;3.70;2.78;;;;;;;15.86;69.16;96362.44;2070091;28;20198;-58
2023/05/12 11:53:57;;;;;;;6.50;3.15;;;;;;;15.88;70.95;96360.56;2072224;28;20236;-57
2023/05/12 11:54:59;;;;;;;4.68;3.38;;;;;;;15.96;71.35;96360.84;2073023;28;20221;-58
2023/05/12 11:56:01;;;;;;;5.97;3.20;;;;;;;15.81;72.30;96361.00;2073144;28;20201;-58
2023/05/12 11:57:03;;;;;;;4.22;3.00;;;;;;;15.89;72.44;96364.88;2070190;28;20209;-57
2023/05/12 11:58:04;;;;;;;5.50;3.05;;;;;;;15.99;72.28;96369.38;2071480;28;20201;-59
2023/05/12 11:59:06;;;;;;;4.90;3.20;;;;;;;15.97;71.91;96362.53;2070929;28;20206;-60
2023/05/12 12:00:08;;;;;;;5.47;2.67;;;;;;;15.97;71.93;96359.91;2070906;28;20221;-60
2023/05/12 12:01:11;;;;;;;4.97;3.60;;;;;;;15.90;72.44;96359.50;2071672;28;20582;-60
2023/05/12 12:02:20;;;;;;;4.55;3.40;;;;;;;16.05;72.21;96365.47;2073298;28;20197;-60
2023/05/12 12:03:23;;;;;;;5.30;3.42;;;;;;;15.90;72.27;96364.78;2074325;28;20247;-60
2023/05/12 12:04:31;;;;;;;4.55;3.55;;;;;;;16.03;72.59;96366.53;2072455;28;20219;-59
2023/05/12 12:05:32;;;;;;;5.50;3.40;;;;;;;16.02;72.02;96363.03;2074091;28;20209;-59
2023/05/12 12:06:43;;;;;;;4.57;3.45;;;;;;;15.94;71.58;96370.66;2072055;28;20234;-60
2023/05/12 12:07:44;;;;;;;6.72;3.60;;;;;;;15.65;72.45;96371.69;2070790;28;20198;-59
2023/05/12 12:09:04;;;;;;;5.32;3.50;;;;;;;15.65;72.70;96365.59;2069275;28;20206;-59
2023/05/12 12:10:17;;;;;;;5.78;2.97;;;;;;;15.49;73.38;96369.31;2073628;28;20228;-60
2023/05/12 12:11:20;;;;;;;4.28;3.10;;;;;;;15.08;74.21;96369.50;2073236;28;20843;-60
2023/05/12 12:12:21;;;;;;;7.13;4.75;;;;;;;15.27;73.83;96366.47;2070180;28;20194;-59
2023/05/12 12:13:24;;;;;;;5.70;3.78;;;;;;;15.55;73.63;96370.66;2073078;28;20205;-59
2023/05/12 12:15:58;;;;;;;3.92;2.80;;;;;;;15.17;73.20;96368.88;2088448;28;20560;-59
2023/05/12 12:17:00;;;;;;;6.55;3.17;;;;;;;15.11;73.39;96366.66;2085822;28;20220;-59
2023/05/12 12:19:42;;;;;;;4.68;2.95;;;;;;;15.42;72.86;96375.09;2089383;28;20549;-57
2023/05/12 12:22:39;;;;;;;3.05;2.05;;;;;;;15.40;72.54;96375.22;2084187;28;20568;-57
2023/05/12 12:25:36;;;;;;;6.80;2.70;;;;;;;14.89;71.53;96381.22;2091502;27;20553;-57
2023/05/12 12:28:17;;;;;;;3.92;1.92;;;;;;;14.45;73.70;96383.16;2083777;28;20578;-57
2023/05/12 12:30:54;;;;;;;3.55;2.10;;;;;;;14.57;74.58;96367.56;2107101;27;21030;-57
2023/05/12 12:33:41;;;;;;;2.80;2.00;;;;;;;14.45;75.28;96390.19;2106121;27;21273;-57
2023/05/12 12:34:45;;;;;;;2.50;2.00;;;;;;;14.72;74.74;96390.22;2101454;28;20874;-57
2023/05/12 12:37:25;;;;;;;7.72;2.30;;;;;;;14.53;73.48;96391.38;2100102;27;21052;-57
2023/05/12 12:38:27;;;;;;;4.25;1.80;;;;;;;14.33;73.51;96391.84;2093517;28;20195;-57
2023/05/12 12:39:28;;;;;;;12.98;2.40;;;;;;;14.40;73.42;96387.88;2091041;28;20191;-57
2023/05/12 12:40:30;;;;;;;3.28;1.98;;;;;;;14.39;74.16;96393.25;2093033;28;20195;-57
2023/05/12 12:41:31;;;;;;;3.80;2.13;;;;;;;14.70;73.42;96389.47;2083881;28;20552;-59
2023/05/12 12:42:34;;;;;;;5.32;1.60;;;;;;;14.34;74.25;96388.28;2076725;28;20698;-59
2023/05/12 12:43:36;;;;;;;5.63;1.73;;;;;;;14.71;73.70;96392.97;2092723;28;20196;-57
2023/05/12 12:44:38;;;;;;;6.88;2.22;;;;;;;14.89;73.27;96393.53;2093348;28;20805;-57
2023/05/12 12:45:39;;;;;;;2.95;2.30;;;;;;;14.95;72.85;96386.06;2076133;28;20204;-57
2023/05/12 12:46:40;;;;;;;3.92;2.00;;;;;;;15.17;71.61;96389.91;2083267;28;20236;-58
2023/05/12 12:47:42;;;;;;;3.63;1.90;;;;;;;14.97;71.94;96380.72;2085091;28;20206;-57
2023/05/12 12:48:44;;;;;;;3.10;2.13;;;;;;;14.94;72.02;96381.75;2086753;28;20208;-57
2023/05/12 12:49:45;;;;;;;5.45;2.80;;;;;;;14.60;73.27;96386.59;2095351;28;20204;-58
2023/05/12 12:50:47;;;;;;;4.05;2.08;;;;;;;14.89;72.11;96383.03;2092026;28;20203;-57
2023/05/12 12:51:48;;;;;;;4.68;3.08;;;;;;;15.13;72.03;96385.81;2085438;28;20311;-57
2023/05/12 12:52:50;;;;;;;4.10;2.53;;;;;;;15.14;71.52;96354.13;2086187;28;20827;-57
2023/05/12 12:53:51;;;;;;;4.03;2.55;;;;;;;15.52;70.41;96395.41;2084258;28;20272;-57
2023/05/12 12:54:53;;;;;;;2.60;1.73;;;;;;;15.29;72.02;96388.25;2083571;28;20205;-58
2023/05/12 12:55:55;;;;;;;5.60;1.92;;;;;;;15.34;70.34;96381.72;2082964;28;20636;-57
2023/05/12 12:56:57;;;;;;;8.68;2.03;;;;;;;15.47;70.18;96391.41;2080445;28;20809;-57
2023/05/12 12:57:58;;;;;;;4.63;1.60;;;;;;;15.41;68.88;96378.66;2091035;28;20671;-57
2023/05/12 12:59:00;;;;;;;2.85;1.80;;;;;;;15.50;69.39;96389.41;2093066;28;20191;-57
2023/05/12 13:00:03;;;;;;;4.55;1.80;;;;;;;15.33;70.14;96387.91;2089065;28;20771;-57
2023/05/12 13:01:05;;;;;;;5.50;2.05;;;;;;;15.52;70.43;96392.78;2088539;28;20192;-57
2023/05/12 13:02:06;;;;;;;4.93;2.28;;;;;;;14.73;70.94;96388.44;2090663;28;21135;-58
2023/05/12 13:03:08;;;;;;;6.70;2.80;;;;;;;14.04;74.25;96387.50;2088398;28;20204;-57
2023/05/12 13:04:10;;;;;;;8.38;2.85;;;;;;;14.35;74.30;96390.78;2084832;28;20200;-57
2023/05/12 13:05:11;;;;;;;5.88;2.53;;;;;;;14.60;73.59;96383.97;2084857;28;20300;-57
2023/05/12 13:06:13;;;;;;;7.15;2.05;;;;;;;14.85;72.67;96395.53;2085911;28;20598;-58
2023/05/12 13:07:14;;;;;;;4.35;2.10;;;;;;;15.21;72.49;96390.53;2089665;28;20197;-57
2023/05/12 13:08:16;;;;;;;4.15;1.77;;;;;;;15.22;72.13;96389.59;2087264;28;20739;-57
2023/05/12 13:09:17;;;;;;;4.25;2.30;;;;;;;15.38;71.73;96392.06;2086537;28;20263;-57
2023/05/12 13:10:20;;;;;;;4.68;2.10;;;;;;;15.72;71.41;96387.06;2084666;28;20215;-57
2023/05/12 13:11:22;;;;;;;6.90;2.60;;;;;;;15.82;71.17;96394.28;2086836;28;20200;-57
2023/05/12 13:12:24;;;;;;;17.30;1.95;;;;;;;15.95;70.59;96394.25;2086452;28;20192;-57
2023/05/12 13:13:25;;;;;;;6.70;2.60;;;;;;;15.67;70.89;96390.03;2084189;28;20616;-57
2023/05/12 13:14:27;;;;;;;14.50;3.08;;;;;;;15.87;70.61;96388.69;2085225;28;20709;-57
2023/05/12 13:15:31;;;;;;;26.23;12.70;;;;;;;15.70;70.68;96396.88;2085658;28;20208;-56
2023/05/12 13:16:32;;;;;;;18.38;7.97;;;;;;;15.65;70.93;96384.88;2083924;28;20316;-57
2023/05/12 13:17:34;;;;;;;14.23;2.85;;;;;;;14.98;70.49;96390.28;2085090;28;20287;-57